createdAt,value
2023-03-26T00:04:35.832Z,79.24
2023-03-26T00:09:58.126Z,79.34
2023-03-26T00:15:19.058Z,79.38
2023-03-26T00:20:41.556Z,79.29
2023-03-26T00:26:03.438Z,79.48
2023-03-26T00:31:24.222Z,79.34
2023-03-26T00:36:46.948Z,79.23
2023-03-26T00:42:08.258Z,79.14
2023-03-26T00:47:29.358Z,79.28
2023-03-26T00:52:50.635Z,79.50
2023-03-26T00:58:12.836Z,79.60
2023-03-26T01:03:35.653Z,79.34
2023-03-26T01:09:00.529Z,79.33
2023-03-26T01:14:24.346Z,78.98
2023-03-26T01:19:56.223Z,78.98
2023-03-26T01:25:17.218Z,78.67
2023-03-26T01:30:43.665Z,78.53
2023-03-26T01:36:17.037Z,78.47
2023-03-26T01:42:19.442Z,77.94
2023-03-26T01:47:42.234Z,78.27
2023-03-26T02:01:31.076Z,77.59
2023-03-26T02:07:02.503Z,77.25
2023-03-26T02:12:24.676Z,76.58
2023-03-26T02:17:45.596Z,76.05
2023-03-26T02:23:06.867Z,75.47
2023-03-26T02:28:27.828Z,75.05
2023-03-26T02:33:49.588Z,74.57
2023-03-26T02:39:11.960Z,74.52
2023-03-26T02:44:33.311Z,73.90
2023-03-26T02:50:14.760Z,73.84
2023-03-26T02:56:02.018Z,73.19
2023-03-26T03:01:35.212Z,73.09
2023-03-26T03:06:57.664Z,73.47
2023-03-26T03:12:19.546Z,72.83
2023-03-26T03:17:40.700Z,72.61
2023-03-26T03:23:01.782Z,72.03
2023-03-26T03:28:25.396Z,72.02
2023-03-26T03:33:46.513Z,71.27
2023-03-26T03:39:09.471Z,71.64
2023-03-26T03:44:31.076Z,71.07
2023-03-26T03:49:53.682Z,70.96
2023-03-26T03:55:15.228Z,70.89
2023-03-26T04:00:41.832Z,70.84
2023-03-26T04:06:21.339Z,70.60
2023-03-26T04:11:46.063Z,70.14
2023-03-26T04:17:23.587Z,70.42
2023-03-26T04:22:48.079Z,70.34
2023-03-26T04:28:22.273Z,70.27
2023-03-26T04:33:55.296Z,70.21
2023-03-26T04:39:16.490Z,70.25
2023-03-26T04:45:03.110Z,69.74
2023-03-26T04:50:26.570Z,69.98
2023-03-26T04:56:14.093Z,70.18
2023-03-26T05:02:00.036Z,70.28
2023-03-26T05:07:24.172Z,69.97
2023-03-26T05:12:53.590Z,70.05
2023-03-26T05:18:18.758Z,70.09
2023-03-26T05:23:43.937Z,69.88
2023-03-26T05:29:17.853Z,70.04
2023-03-26T05:34:42.463Z,69.98
2023-03-26T05:40:04.233Z,69.89
2023-03-26T05:45:37.270Z,69.75
2023-03-26T05:51:15.730Z,69.57
2023-03-26T05:56:44.495Z,69.49
2023-03-26T06:02:23.886Z,69.10
2023-03-26T06:08:04.124Z,69.26
2023-03-26T06:13:30.558Z,68.17
2023-03-26T06:18:56.754Z,67.93
2023-03-26T06:24:26.819Z,68.50
2023-03-26T06:30:03.151Z,68.31
2023-03-26T06:35:43.164Z,67.70
2023-03-26T06:41:06.238Z,67.08
2023-03-26T06:46:45.529Z,66.86
2023-03-26T06:52:38.650Z,66.62
2023-03-26T06:58:25.029Z,66.65
2023-03-26T07:04:08.655Z,66.50
2023-03-26T07:09:49.982Z,65.53
2023-03-26T07:15:37.927Z,64.93
2023-03-26T07:21:33.992Z,65.17
2023-03-26T07:27:17.468Z,65.25
2023-03-26T07:33:24.493Z,64.80
2023-03-26T07:39:15.483Z,63.83
2023-03-26T07:45:19.509Z,64.00
2023-03-26T07:51:13.669Z,64.24
2023-03-26T07:56:59.703Z,63.93
2023-03-26T08:03:06.860Z,62.96
2023-03-26T08:09:17.598Z,62.36
2023-03-26T08:15:12.779Z,61.80
2023-03-26T08:20:51.736Z,62.21
2023-03-26T08:26:41.452Z,62.85
2023-03-26T08:32:04.657Z,62.74
2023-03-26T08:37:26.518Z,61.33
2023-03-26T08:43:16.978Z,61.84
2023-03-26T08:48:47.122Z,62.03
2023-03-26T08:54:26.991Z,61.76
2023-03-26T09:00:03.031Z,61.93
2023-03-26T09:05:43.486Z,61.16
2023-03-26T09:11:07.346Z,60.21
2023-03-26T09:16:34.393Z,60.16
2023-03-26T09:22:23.306Z,60.11
2023-03-26T09:28:16.297Z,59.85
2023-03-26T09:34:13.968Z,59.14
2023-03-26T09:39:58.852Z,58.72
2023-03-26T09:45:39.822Z,58.35
2023-03-26T09:51:14.078Z,58.07
2023-03-26T09:57:25.795Z,57.54
2023-03-26T10:03:14.999Z,56.41
2023-03-26T10:09:08.772Z,55.76
2023-03-26T10:14:53.432Z,55.44
2023-03-26T10:20:44.122Z,55.02
2023-03-26T10:26:29.485Z,54.67
2023-03-26T10:32:06.581Z,54.34
2023-03-26T10:37:49.093Z,54.82
2023-03-26T10:44:07.836Z,52.71
2023-03-26T10:50:07.231Z,47.19
2023-03-26T10:55:47.321Z,29.15
2023-03-26T11:01:36.572Z,23.41
2023-03-26T11:07:17.667Z,21.15
2023-03-26T11:12:57.323Z,18.41
2023-03-26T11:18:28.582Z,17.33
2023-03-26T11:24:12.982Z,17.08
2023-03-26T11:30:03.393Z,16.07
2023-03-26T11:35:40.399Z,18.12
2023-03-26T11:41:11.271Z,17.52
2023-03-26T11:47:10.284Z,16.69
2023-03-26T11:52:33.582Z,16.07
2023-03-26T11:57:57.966Z,13.25
2023-03-26T12:03:20.861Z,12.96
2023-03-26T12:08:41.480Z,12.17
2023-03-26T12:14:07.949Z,11.14
2023-03-26T12:19:35.618Z,10.77
2023-03-26T12:25:16.135Z,10.36
2023-03-26T12:30:39.510Z,11.21
2023-03-26T12:36:17.496Z,10.39
2023-03-26T12:42:25.787Z,9.37
2023-03-26T12:48:01.747Z,9.88
2023-03-26T12:53:20.441Z,9.04
2023-03-26T12:59:06.344Z,8.71
2023-03-26T13:05:02.234Z,9.07
2023-03-26T13:10:49.489Z,8.10
2023-03-26T13:16:15.480Z,8.08
2023-03-26T13:21:51.177Z,7.82
2023-03-26T13:27:51.059Z,8.14
2023-03-26T13:33:39.609Z,8.54
2023-03-26T13:39:20.933Z,8.19
2023-03-26T13:45:05.274Z,8.34
2023-03-26T13:51:08.757Z,8.36
2023-03-26T13:56:40.833Z,9.30
2023-03-26T14:02:15.039Z,13.01
2023-03-26T14:08:04.278Z,11.10
2023-03-26T14:13:56.590Z,8.48
2023-03-26T14:19:49.953Z,7.28
2023-03-26T14:25:16.958Z,7.76
2023-03-26T14:30:43.129Z,8.17
2023-03-26T14:36:22.559Z,7.90
2023-03-26T14:42:12.389Z,8.09
2023-03-26T14:47:42.563Z,10.14
2023-03-26T14:53:13.195Z,13.57
2023-03-26T14:59:11.121Z,15.13
2023-03-26T15:05:09.645Z,14.91
2023-03-26T15:10:49.552Z,13.60
2023-03-26T15:16:47.688Z,15.34
2023-03-26T15:22:29.925Z,16.78
2023-03-26T15:28:28.280Z,19.75
2023-03-26T15:34:00.928Z,20.70
2023-03-26T15:39:44.202Z,18.99
2023-03-26T15:45:32.918Z,19.70
2023-03-26T15:51:08.843Z,21.00
2023-03-26T15:56:48.930Z,22.82
2023-03-26T16:02:29.951Z,24.91
2023-03-26T16:08:14.713Z,27.69
2023-03-26T16:13:49.207Z,29.15
2023-03-26T16:19:19.369Z,29.85
2023-03-26T16:24:46.481Z,29.67
2023-03-26T16:30:15.522Z,29.62
2023-03-26T16:36:25.855Z,29.99
2023-03-26T16:42:05.695Z,31.56
2023-03-26T16:47:37.496Z,32.00
2023-03-26T16:53:15.620Z,32.33
2023-03-26T16:59:00.337Z,32.95
2023-03-26T17:04:27.607Z,33.11
2023-03-26T17:10:15.863Z,33.65
2023-03-26T17:16:09.294Z,34.13
2023-03-26T17:22:02.243Z,34.77
2023-03-26T17:27:50.138Z,35.29
2023-03-26T17:33:27.733Z,35.64
2023-03-26T17:38:48.476Z,35.95
2023-03-26T17:44:37.296Z,37.24
2023-03-26T17:50:02.825Z,37.77
2023-03-26T17:55:34.080Z,38.16
2023-03-26T18:01:22.785Z,38.26
2023-03-26T18:06:55.404Z,38.54
2023-03-26T18:12:41.226Z,38.34
2023-03-26T18:18:18.321Z,38.44
2023-03-26T18:23:44.415Z,38.55
2023-03-26T18:29:25.169Z,39.19
2023-03-26T18:34:50.046Z,39.50
2023-03-26T18:40:19.236Z,40.14
2023-03-26T18:45:41.218Z,40.06
2023-03-26T18:51:07.188Z,40.30
2023-03-26T18:56:31.819Z,40.33
2023-03-26T19:01:52.857Z,40.31
2023-03-26T19:07:18.659Z,40.89
2023-03-26T19:12:39.628Z,40.91
2023-03-26T19:25:39.794Z,41.33
2023-03-26T19:31:19.297Z,41.43
2023-03-26T19:37:01.068Z,41.46
2023-03-26T19:42:26.550Z,41.60
2023-03-26T19:48:00.094Z,41.63
2023-03-26T19:53:33.616Z,41.80
2023-03-26T19:58:55.308Z,41.52
2023-03-26T20:04:16.173Z,41.84
2023-03-26T20:09:36.607Z,41.85
2023-03-26T20:14:57.595Z,41.99
2023-03-26T20:20:19.330Z,42.43
2023-03-26T20:25:49.377Z,42.98
2023-03-26T20:31:16.812Z,42.80
2023-03-26T20:36:38.450Z,43.09
2023-03-26T20:41:59.233Z,43.43
2023-03-26T20:47:20.052Z,44.37
2023-03-26T20:52:43.834Z,45.44
2023-03-26T20:58:04.576Z,46.65
2023-03-26T21:03:25.411Z,47.44
2023-03-26T21:08:46.149Z,47.75
2023-03-26T21:14:22.989Z,48.92
2023-03-26T21:19:43.935Z,49.23
2023-03-26T21:25:39.404Z,49.42
2023-03-26T21:31:00.044Z,49.42
2023-03-26T21:36:21.160Z,49.79
2023-03-26T21:41:47.638Z,49.56
2023-03-26T21:47:09.911Z,49.85
2023-03-26T21:52:31.832Z,50.06
2023-03-26T21:58:31.473Z,50.54
2023-03-26T22:03:57.562Z,50.68
2023-03-26T22:09:20.699Z,50.70
2023-03-26T22:14:47.383Z,50.76
2023-03-26T22:20:16.858Z,51.51
2023-03-26T22:25:37.093Z,51.84
2023-03-26T22:30:58.313Z,52.15
2023-03-26T22:36:23.459Z,52.26
2023-03-26T22:41:46.608Z,52.34
2023-03-26T22:47:08.229Z,52.50
2023-03-26T22:52:29.986Z,52.54
2023-03-26T22:57:52.175Z,52.24
2023-03-26T23:03:15.254Z,51.79
2023-03-26T23:08:37.853Z,51.35
2023-03-26T23:13:58.366Z,51.18
2023-03-26T23:19:19.462Z,51.29
2023-03-26T23:24:40.216Z,51.15
2023-03-26T23:30:01.358Z,51.04
2023-03-26T23:35:22.083Z,51.07
2023-03-26T23:40:44.211Z,51.25
2023-03-26T23:46:17.972Z,51.25
2023-03-26T23:51:38.523Z,50.88
2023-03-26T23:56:59.389Z,50.83
